航空気象通報

ウインドサーファーのための航空気象通報による風予報です。

3/31-4/1の航空気象通報(国内、海外)

2010年03月31日 22時37分34秒 | TAF
羽田空港
TAF AMD RJTT 311305Z 3113/0112 32008KT 9999 FEW030 SCT050
BECMG 3121/3124 20012KT
BECMG 0100/0103 20020G30KT
TEMPO 0109/0112 20032G42KT
日本時間31日22時-1日06時:320度から8ノットの風
06-09時:風が変化
09時:200度から12ノットの風
09-12時:風が変化
12-21時:200度から20ノット、突風30ノット
但し、1日18-21時の間:一時、200度から32ノット、突風42ノット


富士山静岡空港(修正予報)
TAF RJNS 310847Z 3109/0112 26012KT 9999 FEW020 BKN040
TEMPO 3118/0103 3000 BR FEW004 BKN008
TEMPO 0103/0109 3000 -SHRA BR FEW004 BKN008
TEMPO 0109/0112 24018G28KT
日本時間31日18時-1日21時:260度から12ノットの風
但し、1日18-21時の間:240度から18ノット、突風28ノット

但し、1日03-12時の間:一時、もや
但し、1日18-21時の間:一時、もやと

那覇空港
TAF ROAH 310840Z 3109/0112 15011KT 9999 FEW025 SCT045
日本時間31日18時-1日21時:150度から11ノットの風


マウイのカフルイ空港
PHOG 311135Z 3112/0112 04015G22KT P6SM FEW030 SCT050
FM312100 05025G35KT P6SM FEW035 SCT050
FM010500 05015G22KT P6SM SCT050
ハワイ時間31日02-11時:040度から15ノット、突風22ノット
11-19時:050度から25ノット、突風35ノット
19時-1日02時:050度から15ノット、突風22ノット


サイパン空港
PGSN 311136Z 3112/0112 06016KT 6SM -RA SCT018 SCT025 OVC035
TEMPO 3112/3116 06018G28KT 3SM SHRA BKN018 OVC025
FM311600 06016KT 6SM -RA SCT018 SCT025 OVC035
TEMPO 3116/3120 06018G28KT 3SM SHRA BKN018 OVC025
FM312000 07015KT P6SM VCSH SCT020 BKN035
TEMPO 3120/3124 07016G26KT 5SM -SHRA BKN020 OVC035
マリアナ時間31日22時-1日02時:060度から16ノットの風
但し、31日22時-1日02時の間:一時、060度から18ノット、突風28ノット
1日02-06時:060度から16ノットの風
但し、1日02-06時の間:一時、060度から18ノット、突風28ノット
06-22時:070度から15ノットの風
但し、06-10時の間:一時、070度から16ノット、突風26ノット

コメント
この記事をはてなブックマークに追加

3/30-3/31の航空気象通報(国内、海外)

2010年03月30日 23時38分33秒 | TAF
羽田空港
TAF RJTT 300838Z 3009/3112 20012KT 9999 FEW030
BECMG 3016/3018 26006KT
BECMG 3021/3024 20012KT
TEMPO 3103/3109 22020G30KT
日本時間30日18時-31日01時:200度から12ノットの風
01-03時:風が変化
03-06時:260度から6ノットの風
06-09時:風が変化
09-21時:200度から12ノットの風
但し、31日12-18時の間:一時、220度から20ノット、突風30ノット


富士山静岡空港
TAF RJNS 300838Z 3009/3112 27008KT 9999 FEW030
日本時間30日18時-31日21時:270度から8ノットの風


那覇空港
TAF ROAH 300839Z 3009/3112 11009KT 9999 FEW030 BKN045
日本時間30日18時-31日21時:110度から9ノットの風


マウイのカフルイ空港
PHOG 301125Z 3012/3112 05016G26KT P6SM FEW025 SCT050
FM302000 06028G40KT P6SM FEW035 SCT050
FM310400 05020G30KT P6SM FEW035 SCT050
ハワイ時間30日02-10時:050度から16ノット、突風26ノット
10-18時:060度から28ノット、突風40ノット
18時-31日02時:050度から20ノット、突風30ノット


サイパン空港
PGSN 301123Z 3012/3112 03010KT P6SM FEW025
FM302000 06017KT P6SM VCSH SCT020 BKN060
マリアナ時間30日22時-31日06時:030度から10ノットの風

06-22時:060度から17ノットの風
コメント
この記事をはてなブックマークに追加

3/29-3/30の航空気象通報(国内、海外)

2010年03月29日 22時53分00秒 | TAF
羽田空港
TAF RJTT 290843Z 2909/3012 07014KT 9999 FEW015 SCT050
BECMG 2909/2911 34020KT
TEMPO 2910/2915 34022G32KT
BECMG 3006/3009 16012KT
日本時間29日18時:070度から14ノットの風
18-20時:風が変化
20時-30日15時:340度から20ノットの風
但し、29日19-24時の間:一時、340度から22ノット、突風32ノット
30日15-18時:風が変化
18-21時:160度から12ノットの風


富士山静岡空港
TAF RJNS 290839Z 2909/3012 06012KT 9999 FEW008 SCT015
BECMG 2911/2913 30012KT
BECMG 3000/3003 22010KT
日本時間29日18-20時:060度から12ノットの風
20-22時:風が変化
22時-30日09時:300度から12ノットの風
09-21時:220度から10ノットの風


那覇空港
TAF ROAH 290842Z 2909/3012 04012KT 9999 SCT035
BECMG 3000/3003 11012KT
日本時間29日18時-30日09時:040度から12ノットの風
09-12時:風が変化
12-21時:110度から12ノットの風


マウイのカフルイ空港
PHOG 291132Z 2912/3012 06014G20KT P6SM FEW025 SCT050
FM291900 05025G34KT P6SM FEW025 SCT050
FM300600 06015G22KT P6SM FEW025 SCT050
ハワイ時間29日02-09時:060度から14ノット、突風20ノット
09-20時:050度から25ノット、突風34ノット
20時-30日02時:060度から15ノット、突風22ノット


サイパン空港
PGSN 291120Z 2912/3012 07010KT P6SM SCT020 SCT040
マリアナ時間29日22時-30日22時:070度から10ノットの風
コメント
この記事をはてなブックマークに追加

3/28-3/29の航空気象通報(国内、海外)

2010年03月28日 18時47分12秒 | TAF
羽田空港
TAF RJTT 280841Z 2809/2912 05012KT 9999 FEW015 BKN025
BECMG 2903/2906 34020KT
TEMPO 2903/2906 TS FEW010 SCT020 FEW025CB BKN040
TEMPO 2906/2912 34022G32KT
日本時間28日18時-29日12時:050度から12ノットの風
12-15時:風が変化
15-21時:340度から20ノットの風
但し、29日15-21時の間:一時、340度から22ノット、突風32ノット

但し、29日12-15時の間:一時、

富士山静岡空港(修正予報)
TAF AMD RJNS 280945Z 2809/2912 06006KT 8000 FEW015 BKN030
TEMPO 2809/2812 3000 TSRA FEW007 BKN009 FEW020CB
BECMG 2811/2813 30008KT
TEMPO 2812/2814 4000 -SHRA BR
TEMPO 2903/2909 28018G28KT
日本時間28日18-20時:140度から4ノットの風
20-22時:風が変化
22時-29日21時:300度から8ノットの風
但し、29日12-18時の間:280度から18ノット、突風28ノット

但し、28日18-21時の間:一時、
但し、28日21-23時の間:一時、

那覇空港
TAF ROAH 280837Z 2809/2912 02018KT 9999 FEW030
日本時間28日18時-29日21時:020度から18ノットの風


マウイのカフルイ空港
PHOG 281124Z 2812/2912 05012KT P6SM VCSH SCT030 BKN045
FM282000 05018G26KT P6SM FEW025 SCT050
FM290700 06014KT P6SM VCSH SCT025 BKN040
ハワイ時間28日02-10時:050度から12ノットの風

10-21時:050度から18ノット、突風26ノット

21時-29日02時:060度から14ノットの風


サイパン空港
PGSN 281120Z 2812/2912 08011KT P6SM SCT020
マリアナ時間28日22時-29日22時:080度から11ノットの風

コメント
この記事をはてなブックマークに追加

3/27-3/28の航空気象通報(国内、海外)

2010年03月27日 21時51分24秒 | TAF
羽田空港
TAF AMD RJTT 271228Z 2712/2812 20012KT 9999 FEW020 BKN030
BECMG 2713/2715 36010KT
TEMPO 2721/2803 4000 -RA BR BKN009 BKN012
BECMG 2803/2806 07014KT
日本時間27日21-22時:200度から12ノットの風
22-240時:風が変化
28日00-12時:360度から10ノットの風
12-15時:風が変化
15-21時:070度から14ノットの風

但し、28日06-12時の間:一時、

富士山静岡空港
TAF RJNS 270853Z 2709/2812 27012KT 9999 FEW030
TEMPO 2709/2712 27016G26KT
BECMG 2803/2806 21010KT
日本時間27日18時-28日12時:270度から12ノットの風
但し、27日18-21時の間:一時、270度から16ノット、突風26ノット
12-15時:風が変化
15-21時:210度から10ノットの風


那覇空港
TAF ROAH 270841Z 2709/2812 04010KT 9999 FEW030 SCT045
日本時間27日18時-28日21時:040度から10ノットの風


マウイのカフルイ空港
PHOG 271123Z 2712/2812 05011KT P6SM SCT025 BKN050
FM272000 04018G27KT P6SM FEW030 SCT050
FM280400 04015KT P6SM FEW025 SCT045
FM280900 05012KT P6SM SCT025 BKN045
ハワイ時間27日02-10時:050度から11ノットの風

10-18時:040度から18ノット、突風27ノット
18-23時:040度から15ノット

23時-28日02時:050度から12ノットの風


サイパン空港
PGSN 271125Z 2712/2812 10011KT P6SM FEW020
マリアナ時間27日22時-28日22時:100度から11ノットの風

コメント
この記事をはてなブックマークに追加